sensor_id;sensor_type;location;lat;lon;timestamp;P1;durP1;ratioP1;P2;durP2;ratioP2
56271;SDS011;42177;48.914;18.160;2022-08-18T00:03:54;11.1;;;10;;
56271;SDS011;42177;48.914;18.160;2022-08-18T00:08:54;11.9;;;10.4;;
56271;SDS011;42177;48.914;18.160;2022-08-18T00:13:54;11.9;;;10.4;;
56271;SDS011;42177;48.914;18.160;2022-08-18T00:18:54;12;;;9.7;;
56271;SDS011;42177;48.914;18.160;2022-08-18T00:23:54;12;;;9.7;;
56271;SDS011;42177;48.914;18.160;2022-08-18T00:28:54;10.8;;;9.7;;
56271;SDS011;42177;48.914;18.160;2022-08-18T00:33:54;10.8;;;9.7;;
56271;SDS011;42177;48.914;18.160;2022-08-18T00:38:54;12.3;;;10;;
56271;SDS011;42177;48.914;18.160;2022-08-18T00:43:54;12.3;;;10;;
56271;SDS011;42177;48.914;18.160;2022-08-18T00:48:54;10.7;;;9.6;;
56271;SDS011;42177;48.914;18.160;2022-08-18T00:53:55;10.7;;;9.6;;
56271;SDS011;42177;48.914;18.160;2022-08-18T00:58:56;12;;;9.6;;
56271;SDS011;42177;48.914;18.160;2022-08-18T01:03:55;12;;;9.6;;
56271;SDS011;42177;48.914;18.160;2022-08-18T01:08:54;11.2;;;9.9;;
56271;SDS011;42177;48.914;18.160;2022-08-18T01:13:54;11.2;;;9.9;;
56271;SDS011;42177;48.914;18.160;2022-08-18T01:18:54;11.4;;;10.2;;
56271;SDS011;42177;48.914;18.160;2022-08-18T01:23:54;11.4;;;10.2;;
56271;SDS011;42177;48.914;18.160;2022-08-18T01:28:54;12.7;;;10;;
56271;SDS011;42177;48.914;18.160;2022-08-18T01:33:54;12.7;;;10;;
56271;SDS011;42177;48.914;18.160;2022-08-18T01:38:54;11.7;;;10.5;;
56271;SDS011;42177;48.914;18.160;2022-08-18T01:43:54;11.7;;;10.5;;
56271;SDS011;42177;48.914;18.160;2022-08-18T01:48:54;11.8;;;10.4;;
56271;SDS011;42177;48.914;18.160;2022-08-18T01:53:54;11.8;;;10.4;;
56271;SDS011;42177;48.914;18.160;2022-08-18T01:58:54;11.9;;;10.7;;
56271;SDS011;42177;48.914;18.160;2022-08-18T02:03:54;11.9;;;10.7;;
56271;SDS011;42177;48.914;18.160;2022-08-18T02:08:54;13.1;;;10.3;;
56271;SDS011;42177;48.914;18.160;2022-08-18T02:13:54;13.1;;;10.3;;
56271;SDS011;42177;48.914;18.160;2022-08-18T02:18:54;11.7;;;10.5;;
56271;SDS011;42177;48.914;18.160;2022-08-18T02:23:54;11.7;;;10.5;;
56271;SDS011;42177;48.914;18.160;2022-08-18T02:28:54;12.1;;;10.8;;
56271;SDS011;42177;48.914;18.160;2022-08-18T02:33:54;12.1;;;10.8;;
56271;SDS011;42177;48.914;18.160;2022-08-18T02:38:54;14.1;;;10.9;;
56271;SDS011;42177;48.914;18.160;2022-08-18T02:43:54;14.1;;;10.9;;
56271;SDS011;42177;48.914;18.160;2022-08-18T02:48:54;13.1;;;11.3;;
56271;SDS011;42177;48.914;18.160;2022-08-18T02:53:54;13.1;;;11.3;;
56271;SDS011;42177;48.914;18.160;2022-08-18T02:58:54;11.8;;;10.6;;
56271;SDS011;42177;48.914;18.160;2022-08-18T03:03:54;11.8;;;10.6;;
56271;SDS011;42177;48.914;18.160;2022-08-18T03:08:54;13.2;;;11.5;;
56271;SDS011;42177;48.914;18.160;2022-08-18T03:13:54;13.2;;;11.5;;
56271;SDS011;42177;48.914;18.160;2022-08-18T03:18:54;12.5;;;11.2;;
56271;SDS011;42177;48.914;18.160;2022-08-18T03:23:54;12.5;;;11.2;;
56271;SDS011;42177;48.914;18.160;2022-08-18T03:28:54;12.3;;;11;;
56271;SDS011;42177;48.914;18.160;2022-08-18T03:33:54;12.3;;;11;;
56271;SDS011;42177;48.914;18.160;2022-08-18T03:38:54;12.8;;;11.4;;
56271;SDS011;42177;48.914;18.160;2022-08-18T03:43:54;12.8;;;11.4;;
56271;SDS011;42177;48.914;18.160;2022-08-18T03:48:55;12.3;;;11;;
56271;SDS011;42177;48.914;18.160;2022-08-18T03:53:55;12.3;;;11;;
56271;SDS011;42177;48.914;18.160;2022-08-18T03:58:54;12.5;;;11.2;;
56271;SDS011;42177;48.914;18.160;2022-08-18T04:03:54;12.5;;;11.2;;
56271;SDS011;42177;48.914;18.160;2022-08-18T04:08:55;13.8;;;12.3;;
56271;SDS011;42177;48.914;18.160;2022-08-18T04:13:54;13.8;;;12.3;;
56271;SDS011;42177;48.914;18.160;2022-08-18T04:18:54;13.3;;;11.9;;
56271;SDS011;42177;48.914;18.160;2022-08-18T04:23:54;13.3;;;11.9;;
56271;SDS011;42177;48.914;18.160;2022-08-18T04:28:54;13.9;;;12.3;;
56271;SDS011;42177;48.914;18.160;2022-08-18T04:33:54;13.9;;;12.3;;
56271;SDS011;42177;48.914;18.160;2022-08-18T04:38:54;15.7;;;12.7;;
56271;SDS011;42177;48.914;18.160;2022-08-18T04:43:54;15.7;;;12.7;;
56271;SDS011;42177;48.914;18.160;2022-08-18T04:48:54;14.4;;;13;;
56271;SDS011;42177;48.914;18.160;2022-08-18T04:53:54;14.4;;;13;;
56271;SDS011;42177;48.914;18.160;2022-08-18T04:58:56;14.1;;;12.6;;
56271;SDS011;42177;48.914;18.160;2022-08-18T05:03:54;14.1;;;12.6;;
56271;SDS011;42177;48.914;18.160;2022-08-18T05:08:55;13.4;;;12;;
56271;SDS011;42177;48.914;18.160;2022-08-18T05:13:54;13.4;;;12;;
56271;SDS011;42177;48.914;18.160;2022-08-18T05:18:54;13.3;;;11.7;;
56271;SDS011;42177;48.914;18.160;2022-08-18T05:23:54;13.3;;;11.7;;
56271;SDS011;42177;48.914;18.160;2022-08-18T05:28:54;13.6;;;12.2;;
56271;SDS011;42177;48.914;18.160;2022-08-18T05:33:54;13.6;;;12.2;;
56271;SDS011;42177;48.914;18.160;2022-08-18T05:38:56;16.7;;;15;;
56271;SDS011;42177;48.914;18.160;2022-08-18T05:43:54;16.7;;;15;;
56271;SDS011;42177;48.914;18.160;2022-08-18T05:48:54;13.1;;;11.8;;
56271;SDS011;42177;48.914;18.160;2022-08-18T05:53:54;13.1;;;11.8;;
56271;SDS011;42177;48.914;18.160;2022-08-18T05:58:54;15;;;11.8;;
56271;SDS011;42177;48.914;18.160;2022-08-18T06:03:54;15;;;11.8;;
56271;SDS011;42177;48.914;18.160;2022-08-18T06:08:55;13.1;;;11.8;;
56271;SDS011;42177;48.914;18.160;2022-08-18T06:13:54;13.1;;;11.8;;
56271;SDS011;42177;48.914;18.160;2022-08-18T06:18:55;12.9;;;11.6;;
56271;SDS011;42177;48.914;18.160;2022-08-18T06:23:55;12.9;;;11.6;;
56271;SDS011;42177;48.914;18.160;2022-08-18T06:28:57;12.8;;;11.4;;
56271;SDS011;42177;48.914;18.160;2022-08-18T06:33:56;12.8;;;11.4;;
56271;SDS011;42177;48.914;18.160;2022-08-18T06:38:56;13.2;;;11.9;;
56271;SDS011;42177;48.914;18.160;2022-08-18T06:43:55;13.2;;;11.9;;
56271;SDS011;42177;48.914;18.160;2022-08-18T06:48:55;12.8;;;11.6;;
56271;SDS011;42177;48.914;18.160;2022-08-18T06:53:55;12.8;;;11.6;;
56271;SDS011;42177;48.914;18.160;2022-08-18T06:58:54;13.8;;;12.4;;
56271;SDS011;42177;48.914;18.160;2022-08-18T07:03:54;13.8;;;12.4;;
56271;SDS011;42177;48.914;18.160;2022-08-18T07:08:55;12.9;;;11.6;;
56271;SDS011;42177;48.914;18.160;2022-08-18T07:13:55;12.9;;;11.6;;
56271;SDS011;42177;48.914;18.160;2022-08-18T07:18:54;13;;;11.7;;
56271;SDS011;42177;48.914;18.160;2022-08-18T07:23:58;13;;;11.7;;
56271;SDS011;42177;48.914;18.160;2022-08-18T07:28:54;14.1;;;12.2;;
56271;SDS011;42177;48.914;18.160;2022-08-18T07:33:55;14.1;;;12.2;;
56271;SDS011;42177;48.914;18.160;2022-08-18T07:38:55;13.5;;;12.1;;
56271;SDS011;42177;48.914;18.160;2022-08-18T07:43:57;13.5;;;12.1;;
56271;SDS011;42177;48.914;18.160;2022-08-18T07:48:54;14.3;;;11.7;;
56271;SDS011;42177;48.914;18.160;2022-08-18T07:53:57;14.3;;;11.7;;
56271;SDS011;42177;48.914;18.160;2022-08-18T07:58:55;17.6;;;11.3;;
56271;SDS011;42177;48.914;18.160;2022-08-18T08:03:56;17.6;;;11.3;;
56271;SDS011;42177;48.914;18.160;2022-08-18T08:08:56;13.1;;;11.1;;
56271;SDS011;42177;48.914;18.160;2022-08-18T08:13:57;13.1;;;11.1;;
56271;SDS011;42177;48.914;18.160;2022-08-18T08:19:04;14.3;;;11.5;;
56271;SDS011;42177;48.914;18.160;2022-08-18T08:23:55;14.3;;;11.5;;
56271;SDS011;42177;48.914;18.160;2022-08-18T08:28:57;15.6;;;10.8;;
56271;SDS011;42177;48.914;18.160;2022-08-18T08:33:55;15.6;;;10.8;;
56271;SDS011;42177;48.914;18.160;2022-08-18T08:38:54;13.1;;;10.2;;
56271;SDS011;42177;48.914;18.160;2022-08-18T08:44:01;13.1;;;10.2;;
56271;SDS011;42177;48.914;18.160;2022-08-18T08:48:55;14.8;;;10.2;;
56271;SDS011;42177;48.914;18.160;2022-08-18T08:53:56;14.8;;;10.2;;
56271;SDS011;42177;48.914;18.160;2022-08-18T08:58:55;19.8;;;15.4;;
56271;SDS011;42177;48.914;18.160;2022-08-18T09:03:55;19.8;;;15.4;;
56271;SDS011;42177;48.914;18.160;2022-08-18T09:08:59;10.1;;;7.8;;
56271;SDS011;42177;48.914;18.160;2022-08-18T09:13:58;10.1;;;7.8;;
56271;SDS011;42177;48.914;18.160;2022-08-18T09:18:56;8.8;;;6.5;;
56271;SDS011;42177;48.914;18.160;2022-08-18T09:23:56;8.8;;;6.5;;
56271;SDS011;42177;48.914;18.160;2022-08-18T09:28:56;7.1;;;6;;
56271;SDS011;42177;48.914;18.160;2022-08-18T09:33:56;7.1;;;6;;
56271;SDS011;42177;48.914;18.160;2022-08-18T09:38:55;10.6;;;6.3;;
56271;SDS011;42177;48.914;18.160;2022-08-18T09:43:55;10.6;;;6.3;;
56271;SDS011;42177;48.914;18.160;2022-08-18T09:48:57;11.6;;;5.9;;
56271;SDS011;42177;48.914;18.160;2022-08-18T09:58:56;10.8;;;5.9;;
56271;SDS011;42177;48.914;18.160;2022-08-18T10:04:28;10.8;;;5.9;;
56271;SDS011;42177;48.914;18.160;2022-08-18T10:08:59;10;;;5.4;;
56271;SDS011;42177;48.914;18.160;2022-08-18T10:13:58;10;;;5.4;;
56271;SDS011;42177;48.914;18.160;2022-08-18T10:18:56;8.3;;;5.2;;
56271;SDS011;42177;48.914;18.160;2022-08-18T10:23:55;8.3;;;5.2;;
56271;SDS011;42177;48.914;18.160;2022-08-18T10:28:54;8.6;;;5.2;;
56271;SDS011;42177;48.914;18.160;2022-08-18T10:33:56;8.6;;;5.2;;
56271;SDS011;42177;48.914;18.160;2022-08-18T10:38:54;6.8;;;4.5;;
56271;SDS011;42177;48.914;18.160;2022-08-18T10:43:54;6.8;;;4.5;;
56271;SDS011;42177;48.914;18.160;2022-08-18T10:48:58;8.2;;;4.9;;
56271;SDS011;42177;48.914;18.160;2022-08-18T10:53:57;8.2;;;4.9;;
56271;SDS011;42177;48.914;18.160;2022-08-18T10:59:00;7.2;;;4.7;;
56271;SDS011;42177;48.914;18.160;2022-08-18T11:03:59;7.2;;;4.7;;
56271;SDS011;42177;48.914;18.160;2022-08-18T11:08:55;6.1;;;4.6;;
56271;SDS011;42177;48.914;18.160;2022-08-18T11:13:56;6.1;;;4.6;;
56271;SDS011;42177;48.914;18.160;2022-08-18T11:18:55;7.7;;;4.1;;
56271;SDS011;42177;48.914;18.160;2022-08-18T11:24:12;7.7;;;4.1;;
56271;SDS011;42177;48.914;18.160;2022-08-18T11:28:54;7.2;;;3.9;;
56271;SDS011;42177;48.914;18.160;2022-08-18T11:33:54;7.2;;;3.9;;
56271;SDS011;42177;48.914;18.160;2022-08-18T11:38:54;8.4;;;4.3;;
56271;SDS011;42177;48.914;18.160;2022-08-18T11:43:54;8.4;;;4.3;;
56271;SDS011;42177;48.914;18.160;2022-08-18T11:48:54;4.9;;;4.2;;
56271;SDS011;42177;48.914;18.160;2022-08-18T11:53:55;4.9;;;4.2;;
56271;SDS011;42177;48.914;18.160;2022-08-18T11:58:55;5;;;3.4;;
56271;SDS011;42177;48.914;18.160;2022-08-18T12:03:54;5;;;3.4;;
56271;SDS011;42177;48.914;18.160;2022-08-18T12:08:56;6.7;;;3.4;;
56271;SDS011;42177;48.914;18.160;2022-08-18T12:13:56;6.7;;;3.4;;
56271;SDS011;42177;48.914;18.160;2022-08-18T12:18:54;7.1;;;3.4;;
56271;SDS011;42177;48.914;18.160;2022-08-18T12:23:54;7.1;;;3.4;;
56271;SDS011;42177;48.914;18.160;2022-08-18T12:28:54;5.1;;;3.3;;
56271;SDS011;42177;48.914;18.160;2022-08-18T12:33:54;5.1;;;3.3;;
56271;SDS011;42177;48.914;18.160;2022-08-18T12:38:54;6;;;2.8;;
56271;SDS011;42177;48.914;18.160;2022-08-18T12:43:54;6;;;2.8;;
56271;SDS011;42177;48.914;18.160;2022-08-18T12:48:54;6.5;;;3.8;;
56271;SDS011;42177;48.914;18.160;2022-08-18T12:53:54;6.5;;;3.8;;
56271;SDS011;42177;48.914;18.160;2022-08-18T12:58:55;8.1;;;4.1;;
56271;SDS011;42177;48.914;18.160;2022-08-18T13:03:54;8.1;;;4.1;;
56271;SDS011;42177;48.914;18.160;2022-08-18T13:08:54;5.9;;;3.7;;
56271;SDS011;42177;48.914;18.160;2022-08-18T13:13:54;5.9;;;3.7;;
56271;SDS011;42177;48.914;18.160;2022-08-18T13:18:54;6.6;;;4.3;;
56271;SDS011;42177;48.914;18.160;2022-08-18T13:23:54;6.6;;;4.3;;
56271;SDS011;42177;48.914;18.160;2022-08-18T13:28:54;12.7;;;4.3;;
56271;SDS011;42177;48.914;18.160;2022-08-18T13:33:54;12.7;;;4.3;;
56271;SDS011;42177;48.914;18.160;2022-08-18T13:38:54;4.5;;;3.5;;
56271;SDS011;42177;48.914;18.160;2022-08-18T13:43:54;4.5;;;3.5;;
56271;SDS011;42177;48.914;18.160;2022-08-18T13:48:54;5.9;;;3.3;;
56271;SDS011;42177;48.914;18.160;2022-08-18T13:53:54;5.9;;;3.3;;
56271;SDS011;42177;48.914;18.160;2022-08-18T13:58:54;6.1;;;3.6;;
56271;SDS011;42177;48.914;18.160;2022-08-18T14:03:54;6.1;;;3.6;;
56271;SDS011;42177;48.914;18.160;2022-08-18T14:08:54;6.7;;;3.7;;
56271;SDS011;42177;48.914;18.160;2022-08-18T14:13:54;6.7;;;3.7;;
56271;SDS011;42177;48.914;18.160;2022-08-18T14:18:54;7.6;;;4;;
56271;SDS011;42177;48.914;18.160;2022-08-18T14:23:54;7.6;;;4;;
56271;SDS011;42177;48.914;18.160;2022-08-18T14:28:54;5.9;;;4;;
56271;SDS011;42177;48.914;18.160;2022-08-18T14:33:54;5.9;;;4;;
56271;SDS011;42177;48.914;18.160;2022-08-18T14:38:54;7.4;;;4;;
56271;SDS011;42177;48.914;18.160;2022-08-18T14:43:54;7.4;;;4;;
56271;SDS011;42177;48.914;18.160;2022-08-18T14:48:54;8.4;;;4;;
56271;SDS011;42177;48.914;18.160;2022-08-18T14:53:54;8.4;;;4;;
56271;SDS011;42177;48.914;18.160;2022-08-18T14:58:54;7;;;4.1;;
56271;SDS011;42177;48.914;18.160;2022-08-18T15:03:54;7;;;4.1;;
56271;SDS011;42177;48.914;18.160;2022-08-18T15:08:54;6.9;;;4;;
56271;SDS011;42177;48.914;18.160;2022-08-18T15:13:54;6.9;;;4;;
56271;SDS011;42177;48.914;18.160;2022-08-18T15:18:54;5.9;;;4;;
56271;SDS011;42177;48.914;18.160;2022-08-18T15:23:54;5.9;;;4;;
56271;SDS011;42177;48.914;18.160;2022-08-18T15:28:56;7.4;;;3.7;;
56271;SDS011;42177;48.914;18.160;2022-08-18T15:33:56;7.4;;;3.7;;
56271;SDS011;42177;48.914;18.160;2022-08-18T15:38:58;6.9;;;4.2;;
56271;SDS011;42177;48.914;18.160;2022-08-18T15:43:56;6.9;;;4.2;;
56271;SDS011;42177;48.914;18.160;2022-08-18T15:48:56;7;;;3.8;;
56271;SDS011;42177;48.914;18.160;2022-08-18T15:53:55;7;;;3.8;;
56271;SDS011;42177;48.914;18.160;2022-08-18T15:58:58;6.8;;;4.2;;
56271;SDS011;42177;48.914;18.160;2022-08-18T16:03:56;6.8;;;4.2;;
56271;SDS011;42177;48.914;18.160;2022-08-18T16:08:56;6.7;;;4.1;;
56271;SDS011;42177;48.914;18.160;2022-08-18T16:13:59;6.7;;;4.1;;
56271;SDS011;42177;48.914;18.160;2022-08-18T16:18:56;9.7;;;4.5;;
56271;SDS011;42177;48.914;18.160;2022-08-18T16:23:57;9.7;;;4.5;;
56271;SDS011;42177;48.914;18.160;2022-08-18T16:28:58;4.9;;;3.7;;
56271;SDS011;42177;48.914;18.160;2022-08-18T16:33:58;4.9;;;3.7;;
56271;SDS011;42177;48.914;18.160;2022-08-18T16:38:57;5.4;;;3.8;;
56271;SDS011;42177;48.914;18.160;2022-08-18T16:43:57;5.4;;;3.8;;
56271;SDS011;42177;48.914;18.160;2022-08-18T16:48:55;6.2;;;4.5;;
56271;SDS011;42177;48.914;18.160;2022-08-18T16:53:55;6.2;;;4.5;;
56271;SDS011;42177;48.914;18.160;2022-08-18T16:58:54;9.5;;;4.8;;
56271;SDS011;42177;48.914;18.160;2022-08-18T17:03:54;9.5;;;4.8;;
56271;SDS011;42177;48.914;18.160;2022-08-18T17:08:54;9.2;;;4.6;;
56271;SDS011;42177;48.914;18.160;2022-08-18T17:13:56;9.2;;;4.6;;
56271;SDS011;42177;48.914;18.160;2022-08-18T17:18:54;10.9;;;5.3;;
56271;SDS011;42177;48.914;18.160;2022-08-18T17:23:54;10.9;;;5.3;;
56271;SDS011;42177;48.914;18.160;2022-08-18T17:28:56;11.1;;;5.6;;
56271;SDS011;42177;48.914;18.160;2022-08-18T17:33:55;11.1;;;5.6;;
56271;SDS011;42177;48.914;18.160;2022-08-18T17:38:55;7.3;;;4.7;;
56271;SDS011;42177;48.914;18.160;2022-08-18T17:43:55;7.3;;;4.7;;
56271;SDS011;42177;48.914;18.160;2022-08-18T17:48:56;11.5;;;5.8;;
56271;SDS011;42177;48.914;18.160;2022-08-18T17:53:54;11.5;;;5.8;;
56271;SDS011;42177;48.914;18.160;2022-08-18T17:58:55;6.9;;;4.7;;
56271;SDS011;42177;48.914;18.160;2022-08-18T18:03:54;6.9;;;4.7;;
56271;SDS011;42177;48.914;18.160;2022-08-18T18:08:55;7.7;;;5;;
56271;SDS011;42177;48.914;18.160;2022-08-18T18:13:54;7.7;;;5;;
56271;SDS011;42177;48.914;18.160;2022-08-18T18:18:56;8.9;;;5;;
56271;SDS011;42177;48.914;18.160;2022-08-18T18:24:09;8.9;;;5;;
56271;SDS011;42177;48.914;18.160;2022-08-18T18:29:12;9.1;;;5.1;;
56271;SDS011;42177;48.914;18.160;2022-08-18T18:33:55;9.1;;;5.1;;
56271;SDS011;42177;48.914;18.160;2022-08-18T18:39:02;8.5;;;5.6;;
56271;SDS011;42177;48.914;18.160;2022-08-18T18:44:03;8.5;;;5.6;;
56271;SDS011;42177;48.914;18.160;2022-08-18T18:48:58;9.5;;;5.6;;
56271;SDS011;42177;48.914;18.160;2022-08-18T18:53:55;9.5;;;5.6;;
56271;SDS011;42177;48.914;18.160;2022-08-18T18:58:57;8.1;;;5.5;;
56271;SDS011;42177;48.914;18.160;2022-08-18T19:03:55;8.1;;;5.5;;
56271;SDS011;42177;48.914;18.160;2022-08-18T19:08:57;8.4;;;6.3;;
56271;SDS011;42177;48.914;18.160;2022-08-18T19:13:56;8.4;;;6.3;;
56271;SDS011;42177;48.914;18.160;2022-08-18T19:18:55;10.4;;;5.8;;
56271;SDS011;42177;48.914;18.160;2022-08-18T19:23:58;10.4;;;5.8;;
56271;SDS011;42177;48.914;18.160;2022-08-18T19:28:55;9.1;;;6.1;;
56271;SDS011;42177;48.914;18.160;2022-08-18T19:33:55;9.1;;;6.1;;
56271;SDS011;42177;48.914;18.160;2022-08-18T19:38:57;10.2;;;6;;
56271;SDS011;42177;48.914;18.160;2022-08-18T19:43:55;10.2;;;6;;
56271;SDS011;42177;48.914;18.160;2022-08-18T19:48:56;9.3;;;5.7;;
56271;SDS011;42177;48.914;18.160;2022-08-18T19:53:58;9.3;;;5.7;;
56271;SDS011;42177;48.914;18.160;2022-08-18T19:58:58;7.3;;;5.4;;
56271;SDS011;42177;48.914;18.160;2022-08-18T20:04:01;7.3;;;5.4;;
56271;SDS011;42177;48.914;18.160;2022-08-18T20:09:02;8.2;;;6;;
56271;SDS011;42177;48.914;18.160;2022-08-18T20:13:54;8.2;;;6;;
56271;SDS011;42177;48.914;18.160;2022-08-18T20:18:55;9.3;;;6.1;;
56271;SDS011;42177;48.914;18.160;2022-08-18T20:23:57;9.3;;;6.1;;
56271;SDS011;42177;48.914;18.160;2022-08-18T20:28:54;12.1;;;6.5;;
56271;SDS011;42177;48.914;18.160;2022-08-18T20:34:01;12.1;;;6.5;;
56271;SDS011;42177;48.914;18.160;2022-08-18T20:38:55;10.9;;;5.8;;
56271;SDS011;42177;48.914;18.160;2022-08-18T20:43:56;10.9;;;5.8;;
56271;SDS011;42177;48.914;18.160;2022-08-18T20:48:59;10.4;;;6;;
56271;SDS011;42177;48.914;18.160;2022-08-18T20:53:58;10.4;;;6;;
56271;SDS011;42177;48.914;18.160;2022-08-18T20:58:55;9;;;6;;
56271;SDS011;42177;48.914;18.160;2022-08-18T21:03:54;9;;;6;;
56271;SDS011;42177;48.914;18.160;2022-08-18T21:08:54;7.9;;;6.2;;
56271;SDS011;42177;48.914;18.160;2022-08-18T21:13:55;7.9;;;6.2;;
56271;SDS011;42177;48.914;18.160;2022-08-18T21:18:57;8.8;;;5.8;;
56271;SDS011;42177;48.914;18.160;2022-08-18T21:23:55;8.8;;;5.8;;
56271;SDS011;42177;48.914;18.160;2022-08-18T21:28:55;9.7;;;6.2;;
56271;SDS011;42177;48.914;18.160;2022-08-18T21:33:55;9.7;;;6.2;;
56271;SDS011;42177;48.914;18.160;2022-08-18T21:38:54;10.2;;;6.3;;
56271;SDS011;42177;48.914;18.160;2022-08-18T21:43:55;10.2;;;6.3;;
56271;SDS011;42177;48.914;18.160;2022-08-18T21:48:55;8.5;;;6.2;;
56271;SDS011;42177;48.914;18.160;2022-08-18T21:53:54;8.5;;;6.2;;
56271;SDS011;42177;48.914;18.160;2022-08-18T21:59:03;11.2;;;6.1;;
56271;SDS011;42177;48.914;18.160;2022-08-18T22:03:55;11.2;;;6.1;;
56271;SDS011;42177;48.914;18.160;2022-08-18T22:08:55;7.7;;;6.1;;
56271;SDS011;42177;48.914;18.160;2022-08-18T22:13:54;7.7;;;6.1;;
56271;SDS011;42177;48.914;18.160;2022-08-18T22:19:11;10.5;;;6.3;;
56271;SDS011;42177;48.914;18.160;2022-08-18T22:23:54;10.5;;;6.3;;
56271;SDS011;42177;48.914;18.160;2022-08-18T22:28:56;7.8;;;6.2;;
56271;SDS011;42177;48.914;18.160;2022-08-18T22:33:55;7.8;;;6.2;;
56271;SDS011;42177;48.914;18.160;2022-08-18T22:38:55;8.5;;;5.2;;
56271;SDS011;42177;48.914;18.160;2022-08-18T22:43:54;8.5;;;5.2;;
56271;SDS011;42177;48.914;18.160;2022-08-18T22:48:54;7.4;;;5.3;;
56271;SDS011;42177;48.914;18.160;2022-08-18T22:53:54;7.4;;;5.3;;
56271;SDS011;42177;48.914;18.160;2022-08-18T22:58:55;8.3;;;5.1;;
56271;SDS011;42177;48.914;18.160;2022-08-18T23:03:54;8.3;;;5.1;;
56271;SDS011;42177;48.914;18.160;2022-08-18T23:08:54;8.9;;;5.4;;
56271;SDS011;42177;48.914;18.160;2022-08-18T23:13:54;8.9;;;5.4;;
56271;SDS011;42177;48.914;18.160;2022-08-18T23:18:55;7.2;;;5.4;;
56271;SDS011;42177;48.914;18.160;2022-08-18T23:23:54;7.2;;;5.4;;
56271;SDS011;42177;48.914;18.160;2022-08-18T23:28:54;8.7;;;5.5;;
56271;SDS011;42177;48.914;18.160;2022-08-18T23:33:54;8.7;;;5.5;;
56271;SDS011;42177;48.914;18.160;2022-08-18T23:38:54;7.9;;;5.4;;
56271;SDS011;42177;48.914;18.160;2022-08-18T23:43:54;7.9;;;5.4;;
56271;SDS011;42177;48.914;18.160;2022-08-18T23:48:55;11.8;;;8.5;;
56271;SDS011;42177;48.914;18.160;2022-08-18T23:53:55;11.8;;;8.5;;
56271;SDS011;42177;48.914;18.160;2022-08-18T23:58:55;10.6;;;8.6;;
